createdAt,value
2022-09-18T00:02:18.797Z,96903.41
2022-09-18T00:04:45.349Z,96913.84
2022-09-18T00:07:11.821Z,96910.06
2022-09-18T00:09:38.720Z,96915.69
2022-09-18T00:12:05.354Z,96911.31
2022-09-18T00:14:31.818Z,96922.13
2022-09-18T00:16:58.312Z,96921.81
2022-09-18T00:19:24.839Z,96932.03
2022-09-18T00:21:52.120Z,96934.38
2022-09-18T00:24:19.430Z,96932.88
2022-09-18T00:26:47.265Z,96934.44
2022-09-18T00:29:14.749Z,96935.50
2022-09-18T00:31:42.325Z,96935.94
2022-09-18T00:34:14.399Z,96941.31
2022-09-18T00:36:41.647Z,96933.25
2022-09-18T00:39:09.249Z,96937.19
2022-09-18T00:41:39.217Z,96940.09
2022-09-18T00:44:31.980Z,96934.75
2022-09-18T00:47:06.833Z,96939.16
2022-09-18T00:49:34.164Z,96947.03
2022-09-18T00:52:01.739Z,96940.38
2022-09-18T00:54:36.299Z,96943.19
2022-09-18T00:57:07.762Z,96946.38
2022-09-18T00:59:36.517Z,96949.91
2022-09-18T01:02:05.103Z,96945.69
2022-09-18T01:04:32.260Z,96944.97
2022-09-18T01:07:06.780Z,96955.56
2022-09-18T01:10:05.783Z,96957.31
2022-09-18T01:12:54.480Z,96959.88
2022-09-18T01:15:47.623Z,96960.25
2022-09-18T01:18:31.415Z,96965.13
2022-09-18T01:21:20.060Z,96960.72
2022-09-18T01:24:18.903Z,96969.59
2022-09-18T01:27:07.642Z,96967.66
2022-09-18T01:30:15.405Z,96969.97
2022-09-18T01:32:50.022Z,96971.09
2022-09-18T01:35:40.187Z,96977.84
2022-09-18T01:38:08.135Z,96976.25
2022-09-18T01:40:44.531Z,96973.91
2022-09-18T01:43:15.953Z,96980.75
2022-09-18T01:45:46.710Z,96977.72
2022-09-18T01:48:21.193Z,96982.97
2022-09-18T01:50:54.497Z,96984.56
2022-09-18T01:53:30.343Z,96990.09
2022-09-18T01:56:06.229Z,96987.56
2022-09-18T01:58:37.549Z,96993.06
2022-09-18T02:01:10.158Z,96992.00
2022-09-18T02:03:45.969Z,96987.31
2022-09-18T02:06:22.221Z,96986.81
2022-09-18T02:08:53.269Z,96985.91
2022-09-18T02:11:20.888Z,96986.81
2022-09-18T02:13:59.166Z,96993.41
2022-09-18T02:16:36.782Z,96996.38
2022-09-18T02:19:15.978Z,96986.91
2022-09-18T02:21:43.775Z,96992.91
2022-09-18T02:24:15.853Z,96983.63
2022-09-18T02:26:47.998Z,96978.75
2022-09-18T02:29:17.926Z,96977.06
2022-09-18T02:31:45.042Z,96981.72
2022-09-18T02:34:13.013Z,96986.28
2022-09-18T02:36:48.416Z,96979.00
2022-09-18T02:39:44.177Z,96974.44
2022-09-18T02:42:19.712Z,96982.59
2022-09-18T02:45:04.322Z,96973.53
2022-09-18T02:47:58.623Z,96971.47
2022-09-18T02:50:38.027Z,96972.06
2022-09-18T02:53:15.333Z,96968.41
2022-09-18T02:56:00.250Z,96969.22
2022-09-18T02:58:30.701Z,96966.13
2022-09-18T03:01:00.848Z,96962.00
2022-09-18T03:03:29.696Z,96949.63
2022-09-18T03:05:57.395Z,96947.94
2022-09-18T03:08:24.068Z,96952.06
2022-09-18T03:10:50.781Z,96948.97
2022-09-18T03:13:17.941Z,96951.69
2022-09-18T03:15:44.510Z,96943.63
2022-09-18T03:18:11.100Z,96947.13
2022-09-18T03:20:37.599Z,96937.75
2022-09-18T03:23:04.062Z,96932.13
2022-09-18T03:25:31.094Z,96941.41
2022-09-18T03:27:57.571Z,96937.38
2022-09-18T03:30:24.071Z,96931.66
2022-09-18T03:32:50.743Z,96933.25
2022-09-18T03:35:17.228Z,96935.31
2022-09-18T03:37:43.694Z,96929.03
2022-09-18T03:40:11.425Z,96934.13
2022-09-18T03:42:37.995Z,96937.66
2022-09-18T03:45:05.078Z,96935.22
2022-09-18T03:47:35.673Z,96934.38
2022-09-18T03:50:04.891Z,96936.63
2022-09-18T03:52:31.497Z,96938.59
2022-09-18T03:54:58.052Z,96946.25
2022-09-18T03:57:25.083Z,96944.59
2022-09-18T03:59:51.587Z,96944.31
2022-09-18T04:02:18.090Z,96944.78
2022-09-18T04:04:44.604Z,96950.88
2022-09-18T04:07:11.142Z,96953.97
2022-09-18T04:09:37.655Z,96959.56
2022-09-18T04:12:04.438Z,96953.66
2022-09-18T04:14:31.017Z,96946.16
2022-09-18T04:16:57.538Z,96947.38
2022-09-18T04:19:24.038Z,96953.00
2022-09-18T04:21:50.510Z,96949.44
2022-09-18T04:24:17.113Z,96956.59
2022-09-18T04:26:43.608Z,96952.38
2022-09-18T04:29:10.130Z,96950.78
2022-09-18T04:31:36.827Z,96953.22
2022-09-18T04:34:03.424Z,96958.19
2022-09-18T04:36:29.957Z,96954.78
2022-09-18T04:38:56.515Z,96957.72
2022-09-18T04:41:22.985Z,96954.06
2022-09-18T04:43:49.467Z,96953.41
2022-09-18T04:46:16.012Z,96947.13
2022-09-18T04:48:47.479Z,96950.47
2022-09-18T04:51:14.135Z,96948.63
2022-09-18T04:53:41.100Z,96945.91
2022-09-18T04:56:08.183Z,96947.03
2022-09-18T04:58:35.025Z,96951.50
2022-09-18T05:01:03.549Z,96956.84
2022-09-18T05:03:31.012Z,96958.75
2022-09-18T05:05:57.479Z,96956.03
2022-09-18T05:08:24.615Z,96959.38
2022-09-18T05:10:51.244Z,96968.22
2022-09-18T05:13:17.732Z,96966.78
2022-09-18T05:15:44.337Z,96970.44
2022-09-18T05:18:12.130Z,96971.38
2022-09-18T05:20:38.957Z,96977.94
2022-09-18T05:23:06.955Z,96977.09
2022-09-18T05:25:34.036Z,96976.59
2022-09-18T05:28:02.086Z,96979.50
2022-09-18T05:30:29.739Z,96977.34
2022-09-18T05:33:04.849Z,96985.22
2022-09-18T05:35:33.318Z,96988.56
2022-09-18T05:38:00.775Z,96981.88
2022-09-18T05:40:34.144Z,96980.25
2022-09-18T05:43:03.070Z,96986.06
2022-09-18T05:45:32.853Z,96985.56
2022-09-18T05:48:06.615Z,96992.69
2022-09-18T05:50:37.387Z,96983.56
2022-09-18T05:53:06.864Z,96988.41
2022-09-18T05:55:34.647Z,96989.66
2022-09-18T05:58:03.169Z,96998.47
2022-09-18T06:00:31.732Z,96996.16
2022-09-18T06:03:03.979Z,96999.97
2022-09-18T06:05:32.788Z,97010.78
2022-09-18T06:08:00.542Z,97009.09
2022-09-18T06:10:28.765Z,97003.72
2022-09-18T06:13:05.894Z,97010.78
2022-09-18T06:15:36.713Z,96997.66
2022-09-18T06:18:04.487Z,96997.91
2022-09-18T06:20:30.999Z,96996.34
2022-09-18T06:23:01.527Z,97001.75
2022-09-18T06:25:29.425Z,96998.06
2022-09-18T06:27:58.749Z,96999.00
2022-09-18T06:30:26.888Z,96998.06
2022-09-18T06:32:54.258Z,96996.19
2022-09-18T06:35:20.893Z,96998.59
2022-09-18T06:37:47.388Z,97005.34
2022-09-18T06:40:14.339Z,97014.91
2022-09-18T06:42:45.835Z,97001.13
2022-09-18T06:45:12.606Z,97009.31
2022-09-18T06:47:39.095Z,97016.94
2022-09-18T06:50:06.754Z,97009.13
2022-09-18T06:52:33.263Z,97013.97
2022-09-18T06:54:59.765Z,97009.22
2022-09-18T06:57:26.296Z,97009.00
2022-09-18T06:59:52.860Z,97009.84
2022-09-18T07:02:19.848Z,97012.91
2022-09-18T07:04:46.990Z,97013.75
2022-09-18T07:07:13.589Z,97013.13
2022-09-18T07:09:40.144Z,97016.47
2022-09-18T07:12:06.787Z,97010.16
2022-09-18T07:14:33.356Z,97024.66
2022-09-18T07:17:00.165Z,97018.44
2022-09-18T07:19:32.739Z,97013.91
2022-09-18T07:21:59.236Z,97014.16
2022-09-18T07:24:26.298Z,97017.47
2022-09-18T07:26:52.753Z,97021.94
2022-09-18T07:29:19.352Z,97026.66
2022-09-18T07:31:45.870Z,97023.59
2022-09-18T07:34:12.631Z,97029.94
2022-09-18T07:36:39.202Z,97038.59
2022-09-18T07:39:05.683Z,97040.28
2022-09-18T07:41:32.238Z,97039.75
2022-09-18T07:43:58.728Z,97040.28
2022-09-18T07:46:25.319Z,97033.97
2022-09-18T07:48:51.869Z,97034.69
2022-09-18T07:51:21.954Z,97039.00
2022-09-18T07:53:51.993Z,97042.28
2022-09-18T07:56:18.638Z,97048.31
2022-09-18T07:58:45.114Z,97046.38
2022-09-18T08:01:11.680Z,97037.31
2022-09-18T08:03:41.349Z,97044.50
2022-09-18T08:06:08.068Z,97049.13
2022-09-18T08:08:36.286Z,97047.03
2022-09-18T08:11:03.279Z,97052.47
2022-09-18T08:13:29.918Z,97046.09
2022-09-18T08:15:57.917Z,97048.59
2022-09-18T08:18:24.559Z,97042.34
2022-09-18T08:20:51.093Z,97052.59
2022-09-18T08:23:17.587Z,97052.81
2022-09-18T08:25:44.102Z,97055.97
2022-09-18T08:28:10.821Z,97051.13
2022-09-18T08:30:37.360Z,97049.31
2022-09-18T08:33:07.018Z,97047.31
2022-09-18T08:35:33.965Z,97053.53
2022-09-18T08:38:00.830Z,97048.91
2022-09-18T08:40:58.927Z,97050.38
2022-09-18T08:43:28.698Z,97055.53
2022-09-18T08:46:02.602Z,97052.69
2022-09-18T08:48:33.557Z,97058.53
2022-09-18T08:51:06.741Z,97054.19
2022-09-18T08:53:40.293Z,97059.47
2022-09-18T08:56:15.353Z,97049.03
2022-09-18T08:58:48.274Z,97052.44
2022-09-18T09:01:19.003Z,97047.25
2022-09-18T09:04:08.079Z,97048.78
2022-09-18T09:06:43.275Z,97049.59
2022-09-18T09:09:42.514Z,97050.66
2022-09-18T09:12:35.354Z,97047.63
2022-09-18T09:15:12.465Z,97058.78
2022-09-18T09:17:52.469Z,97050.94
2022-09-18T09:20:23.234Z,97050.94
2022-09-18T09:23:14.693Z,97056.94
2022-09-18T09:25:51.063Z,97053.78
2022-09-18T09:28:56.112Z,97058.28
2022-09-18T09:31:26.184Z,97053.38
2022-09-18T09:34:00.849Z,97058.75
2022-09-18T09:36:33.171Z,97049.88
2022-09-18T09:39:07.862Z,97056.56
2022-09-18T09:41:45.077Z,97048.00
2022-09-18T09:44:17.329Z,97052.19
2022-09-18T09:47:01.006Z,97055.19
2022-09-18T09:49:30.072Z,97054.44
2022-09-18T09:52:10.450Z,97058.69
2022-09-18T09:54:37.270Z,97058.22
2022-09-18T09:57:17.900Z,97052.56
2022-09-18T10:00:04.986Z,97053.59
2022-09-18T10:02:57.246Z,97062.44
2022-09-18T10:05:34.501Z,97055.44
2022-09-18T10:08:00.932Z,97060.16
2022-09-18T10:10:36.278Z,97061.50
2022-09-18T10:13:28.070Z,97054.50
2022-09-18T10:16:19.759Z,97058.13
2022-09-18T10:18:48.140Z,97060.03
2022-09-18T10:21:27.144Z,97063.28
2022-09-18T10:24:08.373Z,97069.84
2022-09-18T10:26:53.007Z,97069.97
2022-09-18T10:29:19.762Z,97073.59
2022-09-18T10:31:55.960Z,97069.03
2022-09-18T10:34:45.722Z,97072.56
2022-09-18T10:37:30.247Z,97070.47
2022-09-18T10:40:01.424Z,97062.91
2022-09-18T10:42:37.492Z,97070.81
2022-09-18T10:45:06.719Z,97063.50
2022-09-18T10:47:35.708Z,97058.44
2022-09-18T10:50:11.327Z,97066.63
2022-09-18T10:52:41.690Z,97064.16
2022-09-18T10:55:09.037Z,97059.97
2022-09-18T10:58:03.945Z,97059.69
2022-09-18T11:00:41.899Z,97052.56
2022-09-18T11:03:38.198Z,97055.34
2022-09-18T11:06:15.097Z,97055.25
2022-09-18T11:08:46.409Z,97053.09
2022-09-18T11:11:26.470Z,97059.50
2022-09-18T11:13:57.507Z,97065.28
2022-09-18T11:16:28.361Z,97052.81
2022-09-18T11:19:32.610Z,97056.13
2022-09-18T11:22:02.910Z,97051.50
2022-09-18T11:24:35.244Z,97049.28
2022-09-18T11:27:04.207Z,97053.50
2022-09-18T11:29:39.848Z,97044.00
2022-09-18T11:32:27.673Z,97054.38
2022-09-18T11:35:02.017Z,97047.56
2022-09-18T11:37:39.692Z,97044.91
2022-09-18T11:40:19.349Z,97042.41
2022-09-18T11:42:48.576Z,97045.53
2022-09-18T11:45:34.882Z,97039.41
2022-09-18T11:48:34.788Z,97043.38
2022-09-18T11:51:05.118Z,97033.19
2022-09-18T11:54:04.379Z,97031.44
2022-09-18T11:56:36.966Z,97033.38
2022-09-18T11:59:13.804Z,97041.78
2022-09-18T12:01:43.146Z,97043.66
2022-09-18T12:04:26.679Z,97032.84
2022-09-18T12:06:53.675Z,97032.63
2022-09-18T12:09:35.590Z,97041.59
2022-09-18T12:12:10.870Z,97039.66
2022-09-18T12:14:40.225Z,97035.75
2022-09-18T12:17:22.643Z,97038.09
2022-09-18T12:19:54.881Z,97028.53
2022-09-18T12:22:33.448Z,97018.31
2022-09-18T12:25:00.038Z,97019.28
2022-09-18T12:27:34.119Z,97013.13
2022-09-18T12:30:07.413Z,97024.19
2022-09-18T12:33:02.865Z,97012.50
2022-09-18T12:36:12.253Z,97002.69
2022-09-18T12:38:45.523Z,97003.97
2022-09-18T12:41:40.764Z,97019.19
2022-09-18T12:44:37.513Z,97007.16
2022-09-18T12:47:31.744Z,97011.69
2022-09-18T12:50:28.537Z,97009.75
2022-09-18T12:53:41.312Z,97011.97
2022-09-18T12:56:33.469Z,97009.16
2022-09-18T12:59:17.968Z,96994.50
2022-09-18T13:01:51.550Z,97005.59
2022-09-18T13:04:24.610Z,97001.97
2022-09-18T13:07:06.139Z,96985.63
2022-09-18T13:10:17.626Z,96987.78
2022-09-18T13:13:09.922Z,96994.53
2022-09-18T13:15:43.620Z,96995.59
2022-09-18T13:18:35.595Z,96995.94
2022-09-18T13:21:05.996Z,96989.78
2022-09-18T13:23:39.544Z,96991.19
2022-09-18T13:26:10.529Z,96989.28
2022-09-18T13:28:40.107Z,96982.38
2022-09-18T13:31:30.597Z,96976.59
2022-09-18T13:34:04.302Z,96972.59
2022-09-18T13:36:39.831Z,96968.31
2022-09-18T13:39:18.332Z,96978.09
2022-09-18T13:41:48.100Z,96969.25
2022-09-18T13:44:20.611Z,96967.69
2022-09-18T13:46:49.594Z,96967.69
2022-09-18T13:49:18.937Z,96976.59
2022-09-18T13:51:45.448Z,96964.13
2022-09-18T13:54:12.009Z,96971.75
2022-09-18T13:57:00.095Z,96978.16
2022-09-18T13:59:48.038Z,96980.00
2022-09-18T14:02:23.814Z,96987.13
2022-09-18T14:04:57.364Z,96985.22
2022-09-18T14:07:23.759Z,96981.47
2022-09-18T14:10:05.749Z,96988.84
2022-09-18T14:12:35.097Z,96972.63
2022-09-18T14:15:01.802Z,96978.63
2022-09-18T14:17:31.069Z,96979.03
2022-09-18T14:20:19.911Z,96972.56
2022-09-18T14:22:46.384Z,96965.50
2022-09-18T14:25:14.543Z,96978.56
2022-09-18T14:27:57.048Z,96975.53
2022-09-18T14:30:29.243Z,96966.19
2022-09-18T14:33:03.594Z,96968.47
2022-09-18T14:35:42.038Z,96959.66
2022-09-18T14:38:24.669Z,96958.84
2022-09-18T14:41:24.819Z,96959.59
2022-09-18T14:43:53.374Z,96957.06
2022-09-18T14:46:21.811Z,96956.22
2022-09-18T14:48:48.914Z,96953.22
2022-09-18T14:51:27.953Z,96953.09
2022-09-18T14:53:56.617Z,96959.50
2022-09-18T14:56:34.354Z,96948.66
2022-09-18T14:59:06.027Z,96944.81
2022-09-18T15:01:40.039Z,96932.44
2022-09-18T15:04:13.575Z,96940.13
2022-09-18T15:06:53.456Z,96929.56
2022-09-18T15:09:32.790Z,96928.69
2022-09-18T15:12:02.901Z,96933.16
2022-09-18T15:14:37.786Z,96924.16
2022-09-18T15:17:20.370Z,96922.47
2022-09-18T15:20:08.977Z,96914.16
2022-09-18T15:22:35.546Z,96913.72
2022-09-18T15:25:02.227Z,96919.13
2022-09-18T15:27:30.070Z,96916.13
2022-09-18T15:30:04.149Z,96918.16
2022-09-18T15:32:38.711Z,96906.03
2022-09-18T15:35:08.882Z,96910.81
2022-09-18T15:37:38.170Z,96901.75
2022-09-18T15:40:09.291Z,96895.25
2022-09-18T15:42:40.279Z,96901.88
2022-09-18T15:45:06.720Z,96898.50
2022-09-18T15:47:36.442Z,96890.59
2022-09-18T15:50:12.150Z,96897.53
2022-09-18T15:52:40.048Z,96892.88
2022-09-18T15:55:46.667Z,96896.00
2022-09-18T15:58:44.051Z,96899.72
2022-09-18T16:01:20.927Z,96894.06
2022-09-18T16:03:48.054Z,96899.34
2022-09-18T16:06:26.521Z,96896.00
2022-09-18T16:08:55.711Z,96893.25
2022-09-18T16:11:40.131Z,96891.78
2022-09-18T16:14:45.170Z,96889.06
2022-09-18T16:17:31.965Z,96890.13
2022-09-18T16:20:21.789Z,96881.72
2022-09-18T16:22:50.248Z,96884.97
2022-09-18T16:25:25.146Z,96883.75
2022-09-18T16:27:54.380Z,96879.78
2022-09-18T16:30:20.875Z,96881.59
2022-09-18T16:32:47.349Z,96879.16
2022-09-18T16:35:15.233Z,96881.06
2022-09-18T16:37:43.742Z,96878.06
2022-09-18T16:40:17.639Z,96872.53
2022-09-18T16:42:44.342Z,96873.75
2022-09-18T16:45:11.608Z,96876.88
2022-09-18T16:47:44.796Z,96876.38
2022-09-18T16:50:11.981Z,96884.09
2022-09-18T16:52:38.487Z,96881.25
2022-09-18T16:55:05.680Z,96879.69
2022-09-18T16:57:32.206Z,96886.41
2022-09-18T17:00:05.028Z,96880.03
2022-09-18T17:02:31.690Z,96880.38
2022-09-18T17:04:58.416Z,96878.03
2022-09-18T17:07:25.607Z,96878.03
2022-09-18T17:09:52.127Z,96878.84
2022-09-18T17:12:18.569Z,96882.03
2022-09-18T17:14:45.031Z,96880.28
2022-09-18T17:17:13.428Z,96869.91
2022-09-18T17:19:40.953Z,96872.97
2022-09-18T17:22:08.746Z,96873.84
2022-09-18T17:24:35.358Z,96873.31
2022-09-18T17:27:01.856Z,96858.53
2022-09-18T17:29:28.322Z,96869.84
2022-09-18T17:31:55.042Z,96868.16
2022-09-18T17:34:22.110Z,96874.34
2022-09-18T17:36:48.706Z,96878.41
2022-09-18T17:39:17.067Z,96876.06
2022-09-18T17:41:44.865Z,96877.63
2022-09-18T17:44:11.360Z,96880.03
2022-09-18T17:46:37.935Z,96885.84
2022-09-18T17:49:05.872Z,96889.31
2022-09-18T17:51:33.264Z,96882.09
2022-09-18T17:54:02.926Z,96878.16
2022-09-18T17:56:30.814Z,96879.06
2022-09-18T17:59:00.109Z,96874.78
2022-09-18T18:01:28.173Z,96878.97
2022-09-18T18:03:55.088Z,96883.88
2022-09-18T18:06:22.009Z,96883.84
2022-09-18T18:08:49.967Z,96876.16
2022-09-18T18:11:18.594Z,96881.09
2022-09-18T18:13:47.652Z,96881.91
2022-09-18T18:16:17.832Z,96870.75
2022-09-18T18:18:44.337Z,96877.50
2022-09-18T18:21:11.159Z,96878.25
2022-09-18T18:23:38.463Z,96882.22
2022-09-18T18:26:07.890Z,96878.00
2022-09-18T18:28:36.303Z,96890.28
2022-09-18T18:31:07.037Z,96882.38
2022-09-18T18:33:35.161Z,96891.97
2022-09-18T18:36:16.673Z,96885.63
2022-09-18T18:38:45.993Z,96890.75
2022-09-18T18:41:14.230Z,96891.06
2022-09-18T18:43:41.482Z,96885.69
2022-09-18T18:46:12.269Z,96886.75
2022-09-18T18:48:40.250Z,96881.16
2022-09-18T18:51:12.818Z,96877.34
2022-09-18T18:53:39.551Z,96878.22
2022-09-18T18:56:11.982Z,96873.19
2022-09-18T18:58:39.191Z,96878.31
2022-09-18T19:01:06.877Z,96882.75
2022-09-18T19:03:38.105Z,96884.00
2022-09-18T19:06:06.463Z,96880.97
2022-09-18T19:08:35.592Z,96879.34
2022-09-18T19:11:03.032Z,96882.09
2022-09-18T19:13:30.220Z,96879.34
2022-09-18T19:15:56.899Z,96869.69
2022-09-18T19:18:23.624Z,96867.06
2022-09-18T19:20:53.502Z,96874.75
2022-09-18T19:23:20.897Z,96884.22
2022-09-18T19:25:47.505Z,96885.91
2022-09-18T19:28:16.951Z,96877.97
2022-09-18T19:30:43.739Z,96881.03
2022-09-18T19:33:15.315Z,96876.84
2022-09-18T19:35:42.394Z,96874.09
2022-09-18T19:38:09.273Z,96870.50
2022-09-18T19:40:38.438Z,96868.00
2022-09-18T19:43:13.725Z,96873.53
2022-09-18T19:45:42.311Z,96876.31
2022-09-18T19:48:21.344Z,96880.25
2022-09-18T19:50:48.123Z,96873.41
2022-09-18T19:53:15.258Z,96878.13
2022-09-18T19:55:47.683Z,96869.78
2022-09-18T19:58:15.780Z,96868.81
2022-09-18T20:00:44.376Z,96869.78
2022-09-18T20:03:11.221Z,96865.84
2022-09-18T20:05:38.430Z,96854.44
2022-09-18T20:08:06.758Z,96843.34
2022-09-18T20:10:35.627Z,96846.09
2022-09-18T20:13:02.538Z,96847.22
2022-09-18T20:15:29.045Z,96842.88
2022-09-18T20:17:56.512Z,96843.34
2022-09-18T20:20:22.978Z,96843.91
2022-09-18T20:22:53.385Z,96848.78
2022-09-18T20:25:20.136Z,96850.44
2022-09-18T20:27:46.713Z,96842.66
2022-09-18T20:30:13.475Z,96850.91
2022-09-18T20:32:40.497Z,96846.84
2022-09-18T20:35:07.363Z,96836.56
2022-09-18T20:37:33.854Z,96859.19
2022-09-18T20:40:04.158Z,96856.75
2022-09-18T20:42:31.994Z,96853.06
2022-09-18T20:45:02.149Z,96840.13
2022-09-18T20:47:34.732Z,96823.06
2022-09-18T20:50:13.274Z,96818.03
2022-09-18T20:52:43.078Z,96835.09
2022-09-18T20:55:12.557Z,96828.16
2022-09-18T20:57:40.726Z,96832.13
2022-09-18T21:00:09.784Z,96832.59
2022-09-18T21:02:37.723Z,96823.22
2022-09-18T21:05:08.669Z,96824.63
2022-09-18T21:07:35.222Z,96826.72
2022-09-18T21:10:01.845Z,96809.59
2022-09-18T21:12:38.199Z,96803.28
2022-09-18T21:15:07.500Z,96794.38
2022-09-18T21:17:34.167Z,96793.75
2022-09-18T21:20:02.165Z,96801.41
2022-09-18T21:22:30.329Z,96796.38
2022-09-18T21:24:56.779Z,96796.59
2022-09-18T21:27:23.282Z,96795.66
2022-09-18T21:29:49.741Z,96781.66
2022-09-18T21:32:16.550Z,96779.34
2022-09-18T21:34:44.115Z,96773.75
2022-09-18T21:37:12.101Z,96776.28
2022-09-18T21:39:39.155Z,96776.19
2022-09-18T21:42:07.355Z,96773.22
2022-09-18T21:44:36.024Z,96769.84
2022-09-18T21:47:05.310Z,96764.53
2022-09-18T21:49:32.451Z,96764.09
2022-09-18T21:52:01.789Z,96768.38
2022-09-18T21:54:28.564Z,96765.97
2022-09-18T21:56:56.621Z,96760.44
2022-09-18T21:59:25.460Z,96760.88
2022-09-18T22:01:55.285Z,96764.44
2022-09-18T22:04:26.225Z,96770.22
2022-09-18T22:06:55.436Z,96763.25
2022-09-18T22:09:27.480Z,96762.66
2022-09-18T22:11:55.170Z,96757.69
2022-09-18T22:14:32.225Z,96753.38
2022-09-18T22:17:00.920Z,96757.34
2022-09-18T22:19:29.168Z,96749.88
2022-09-18T22:21:56.959Z,96755.69
2022-09-18T22:24:26.076Z,96750.88
2022-09-18T22:27:00.050Z,96761.75
2022-09-18T22:29:34.205Z,96760.31
2022-09-18T22:32:01.706Z,96751.09
2022-09-18T22:34:29.946Z,96752.97
2022-09-18T22:36:58.202Z,96759.38
2022-09-18T22:39:24.768Z,96761.63
2022-09-18T22:41:51.904Z,96754.91
2022-09-18T22:44:21.349Z,96746.66
2022-09-18T22:46:48.751Z,96748.22
2022-09-18T22:49:17.228Z,96751.22
2022-09-18T22:51:44.856Z,96750.59
2022-09-18T22:54:12.911Z,96747.00
2022-09-18T22:56:44.509Z,96751.03
2022-09-18T22:59:13.186Z,96740.69
2022-09-18T23:01:48.955Z,96743.69
2022-09-18T23:04:18.767Z,96738.28
2022-09-18T23:06:47.703Z,96735.16
2022-09-18T23:09:15.872Z,96746.63
2022-09-18T23:11:43.951Z,96747.38
2022-09-18T23:14:17.073Z,96746.47
2022-09-18T23:16:43.883Z,96752.56
2022-09-18T23:19:20.463Z,96760.88
2022-09-18T23:21:47.036Z,96761.50
2022-09-18T23:24:15.994Z,96759.31
2022-09-18T23:26:45.359Z,96759.66
2022-09-18T23:29:17.531Z,96750.97
2022-09-18T23:31:45.934Z,96758.06
2022-09-18T23:34:15.069Z,96763.84
2022-09-18T23:36:44.655Z,96763.09
2022-09-18T23:39:18.220Z,96760.59
2022-09-18T23:41:45.507Z,96757.03
2022-09-18T23:44:14.577Z,96758.31
2022-09-18T23:46:42.262Z,96757.69
2022-09-18T23:49:09.773Z,96754.59
2022-09-18T23:51:40.466Z,96760.91
2022-09-18T23:54:12.423Z,96757.75
2022-09-18T23:56:38.904Z,96760.81
2022-09-18T23:59:06.912Z,96766.78
